sensor_id;sensor_type;location;lat;lon;timestamp;P1;durP1;ratioP1;P2;durP2;ratioP2
9524;SDS011;15940;48.734;9.112;2023-04-01T00:01:05;0.87;;;0.80;;
9524;SDS011;15940;48.734;9.112;2023-04-01T00:03:32;1.77;;;0.90;;
9524;SDS011;15940;48.734;9.112;2023-04-01T00:06:00;0.97;;;0.70;;
9524;SDS011;15940;48.734;9.112;2023-04-01T00:08:29;5.33;;;1.27;;
9524;SDS011;15940;48.734;9.112;2023-04-01T00:10:56;3.53;;;0.90;;
9524;SDS011;15940;48.734;9.112;2023-04-01T00:13:23;1.93;;;0.90;;
9524;SDS011;15940;48.734;9.112;2023-04-01T00:15:51;1.83;;;0.80;;
9524;SDS011;15940;48.734;9.112;2023-04-01T00:18:18;2.50;;;0.93;;
9524;SDS011;15940;48.734;9.112;2023-04-01T00:20:46;1.90;;;1.00;;
9524;SDS011;15940;48.734;9.112;2023-04-01T00:23:15;1.80;;;1.00;;
9524;SDS011;15940;48.734;9.112;2023-04-01T00:25:45;4.60;;;1.30;;
9524;SDS011;15940;48.734;9.112;2023-04-01T00:28:13;0.60;;;0.53;;
9524;SDS011;15940;48.734;9.112;2023-04-01T00:30:40;3.40;;;1.07;;
9524;SDS011;15940;48.734;9.112;2023-04-01T00:33:07;3.30;;;1.10;;
9524;SDS011;15940;48.734;9.112;2023-04-01T00:35:34;2.20;;;1.00;;
9524;SDS011;15940;48.734;9.112;2023-04-01T00:38:01;4.53;;;0.90;;
9524;SDS011;15940;48.734;9.112;2023-04-01T00:40:28;2.53;;;0.93;;
9524;SDS011;15940;48.734;9.112;2023-04-01T00:43:00;5.53;;;1.03;;
9524;SDS011;15940;48.734;9.112;2023-04-01T00:45:28;3.33;;;1.10;;
9524;SDS011;15940;48.734;9.112;2023-04-01T00:48:01;3.00;;;1.23;;
9524;SDS011;15940;48.734;9.112;2023-04-01T00:50:32;2.27;;;1.00;;
9524;SDS011;15940;48.734;9.112;2023-04-01T00:53:00;3.90;;;1.00;;
9524;SDS011;15940;48.734;9.112;2023-04-01T00:55:29;3.77;;;1.30;;
9524;SDS011;15940;48.734;9.112;2023-04-01T00:58:03;2.83;;;1.00;;
9524;SDS011;15940;48.734;9.112;2023-04-01T01:00:33;3.60;;;0.90;;
9524;SDS011;15940;48.734;9.112;2023-04-01T01:03:01;1.50;;;0.90;;
9524;SDS011;15940;48.734;9.112;2023-04-01T01:05:30;1.53;;;1.00;;
9524;SDS011;15940;48.734;9.112;2023-04-01T01:08:12;4.20;;;1.10;;
9524;SDS011;15940;48.734;9.112;2023-04-01T01:10:49;3.60;;;1.27;;
9524;SDS011;15940;48.734;9.112;2023-04-01T01:13:18;1.77;;;0.80;;
9524;SDS011;15940;48.734;9.112;2023-04-01T01:15:53;3.23;;;0.93;;
9524;SDS011;15940;48.734;9.112;2023-04-01T01:18:27;2.33;;;0.90;;
9524;SDS011;15940;48.734;9.112;2023-04-01T01:21:21;3.47;;;1.10;;
9524;SDS011;15940;48.734;9.112;2023-04-01T01:24:12;3.03;;;0.90;;
9524;SDS011;15940;48.734;9.112;2023-04-01T01:27:06;2.57;;;0.93;;
9524;SDS011;15940;48.734;9.112;2023-04-01T01:29:49;2.23;;;0.80;;
9524;SDS011;15940;48.734;9.112;2023-04-01T01:32:40;2.73;;;1.30;;
9524;SDS011;15940;48.734;9.112;2023-04-01T01:35:43;2.40;;;0.90;;
9524;SDS011;15940;48.734;9.112;2023-04-01T01:38:15;5.23;;;0.90;;
9524;SDS011;15940;48.734;9.112;2023-04-01T01:40:45;3.37;;;0.97;;
9524;SDS011;15940;48.734;9.112;2023-04-01T01:43:17;2.20;;;0.80;;
9524;SDS011;15940;48.734;9.112;2023-04-01T01:45:50;1.93;;;0.80;;
9524;SDS011;15940;48.734;9.112;2023-04-01T01:48:20;1.53;;;0.63;;
9524;SDS011;15940;48.734;9.112;2023-04-01T01:50:49;1.37;;;0.80;;
9524;SDS011;15940;48.734;9.112;2023-04-01T01:53:17;4.93;;;1.00;;
9524;SDS011;15940;48.734;9.112;2023-04-01T01:55:44;2.27;;;1.00;;
9524;SDS011;15940;48.734;9.112;2023-04-01T01:58:14;3.63;;;1.00;;
9524;SDS011;15940;48.734;9.112;2023-04-01T02:00:46;2.70;;;0.90;;
9524;SDS011;15940;48.734;9.112;2023-04-01T02:03:17;3.90;;;1.20;;
9524;SDS011;15940;48.734;9.112;2023-04-01T02:05:46;3.13;;;0.60;;
9524;SDS011;15940;48.734;9.112;2023-04-01T02:08:16;2.53;;;0.80;;
9524;SDS011;15940;48.734;9.112;2023-04-01T02:10:49;3.43;;;0.70;;
9524;SDS011;15940;48.734;9.112;2023-04-01T02:13:24;0.97;;;0.70;;
9524;SDS011;15940;48.734;9.112;2023-04-01T02:15:59;2.87;;;1.10;;
9524;SDS011;15940;48.734;9.112;2023-04-01T02:18:32;1.27;;;0.67;;
9524;SDS011;15940;48.734;9.112;2023-04-01T02:21:03;2.37;;;0.90;;
9524;SDS011;15940;48.734;9.112;2023-04-01T02:23:32;1.20;;;0.67;;
9524;SDS011;15940;48.734;9.112;2023-04-01T02:26:01;1.23;;;0.60;;
9524;SDS011;15940;48.734;9.112;2023-04-01T02:28:31;1.90;;;0.70;;
9524;SDS011;15940;48.734;9.112;2023-04-01T02:31:00;1.87;;;0.63;;
9524;SDS011;15940;48.734;9.112;2023-04-01T02:33:28;1.60;;;0.80;;
9524;SDS011;15940;48.734;9.112;2023-04-01T02:35:56;1.67;;;0.73;;
9524;SDS011;15940;48.734;9.112;2023-04-01T02:38:26;3.30;;;0.73;;
9524;SDS011;15940;48.734;9.112;2023-04-01T02:40:56;3.17;;;0.70;;
9524;SDS011;15940;48.734;9.112;2023-04-01T02:43:26;1.40;;;0.57;;
9524;SDS011;15940;48.734;9.112;2023-04-01T02:45:53;2.83;;;0.57;;
9524;SDS011;15940;48.734;9.112;2023-04-01T02:48:20;1.07;;;0.40;;
9524;SDS011;15940;48.734;9.112;2023-04-01T02:50:47;1.17;;;0.30;;
9524;SDS011;15940;48.734;9.112;2023-04-01T02:53:14;0.90;;;0.60;;
9524;SDS011;15940;48.734;9.112;2023-04-01T02:55:43;2.00;;;0.40;;
9524;SDS011;15940;48.734;9.112;2023-04-01T02:58:10;0.80;;;0.60;;
9524;SDS011;15940;48.734;9.112;2023-04-01T03:00:37;0.80;;;0.53;;
9524;SDS011;15940;48.734;9.112;2023-04-01T03:03:04;0.50;;;0.50;;
9524;SDS011;15940;48.734;9.112;2023-04-01T03:05:31;0.50;;;0.30;;
9524;SDS011;15940;48.734;9.112;2023-04-01T03:07:58;1.07;;;0.40;;
9524;SDS011;15940;48.734;9.112;2023-04-01T03:10:25;0.83;;;0.63;;
9524;SDS011;15940;48.734;9.112;2023-04-01T03:12:54;0.63;;;0.40;;
9524;SDS011;15940;48.734;9.112;2023-04-01T03:15:21;1.50;;;0.43;;
9524;SDS011;15940;48.734;9.112;2023-04-01T03:17:47;0.90;;;0.60;;
9524;SDS011;15940;48.734;9.112;2023-04-01T03:20:15;0.50;;;0.50;;
9524;SDS011;15940;48.734;9.112;2023-04-01T03:22:42;0.17;;;0.17;;
9524;SDS011;15940;48.734;9.112;2023-04-01T03:25:09;2.50;;;0.70;;
9524;SDS011;15940;48.734;9.112;2023-04-01T03:27:36;1.07;;;0.47;;
9524;SDS011;15940;48.734;9.112;2023-04-01T03:30:05;0.67;;;0.67;;
9524;SDS011;15940;48.734;9.112;2023-04-01T03:32:34;2.90;;;0.57;;
9524;SDS011;15940;48.734;9.112;2023-04-01T03:35:01;1.90;;;0.40;;
9524;SDS011;15940;48.734;9.112;2023-04-01T03:37:29;1.60;;;0.73;;
9524;SDS011;15940;48.734;9.112;2023-04-01T03:39:57;1.40;;;0.53;;
9524;SDS011;15940;48.734;9.112;2023-04-01T03:42:24;1.40;;;0.40;;
9524;SDS011;15940;48.734;9.112;2023-04-01T03:44:50;1.93;;;0.67;;
9524;SDS011;15940;48.734;9.112;2023-04-01T03:47:19;0.73;;;0.30;;
9524;SDS011;15940;48.734;9.112;2023-04-01T03:49:46;2.47;;;0.50;;
9524;SDS011;15940;48.734;9.112;2023-04-01T03:52:12;1.60;;;0.40;;
9524;SDS011;15940;48.734;9.112;2023-04-01T03:54:40;1.17;;;0.60;;
9524;SDS011;15940;48.734;9.112;2023-04-01T03:57:07;0.63;;;0.40;;
9524;SDS011;15940;48.734;9.112;2023-04-01T03:59:33;2.03;;;0.70;;
9524;SDS011;15940;48.734;9.112;2023-04-01T04:02:01;1.27;;;0.67;;
9524;SDS011;15940;48.734;9.112;2023-04-01T04:04:29;0.53;;;0.30;;
9524;SDS011;15940;48.734;9.112;2023-04-01T04:06:57;1.00;;;0.40;;
9524;SDS011;15940;48.734;9.112;2023-04-01T04:09:24;1.47;;;0.40;;
9524;SDS011;15940;48.734;9.112;2023-04-01T04:11:51;0.50;;;0.33;;
9524;SDS011;15940;48.734;9.112;2023-04-01T04:14:18;0.50;;;0.50;;
9524;SDS011;15940;48.734;9.112;2023-04-01T04:16:45;2.33;;;0.50;;
9524;SDS011;15940;48.734;9.112;2023-04-01T04:19:11;0.73;;;0.50;;
9524;SDS011;15940;48.734;9.112;2023-04-01T04:21:40;0.37;;;0.37;;
9524;SDS011;15940;48.734;9.112;2023-04-01T04:24:08;0.83;;;0.60;;
9524;SDS011;15940;48.734;9.112;2023-04-01T04:26:35;1.23;;;0.47;;
9524;SDS011;15940;48.734;9.112;2023-04-01T04:29:03;0.30;;;0.30;;
9524;SDS011;15940;48.734;9.112;2023-04-01T04:31:30;2.30;;;0.73;;
9524;SDS011;15940;48.734;9.112;2023-04-01T04:33:58;2.30;;;0.50;;
9524;SDS011;15940;48.734;9.112;2023-04-01T04:36:26;1.13;;;0.67;;
9524;SDS011;15940;48.734;9.112;2023-04-01T04:38:54;0.67;;;0.47;;
9524;SDS011;15940;48.734;9.112;2023-04-01T04:41:23;1.00;;;0.50;;
9524;SDS011;15940;48.734;9.112;2023-04-01T04:43:51;0.87;;;0.50;;
9524;SDS011;15940;48.734;9.112;2023-04-01T04:46:20;1.87;;;0.50;;
9524;SDS011;15940;48.734;9.112;2023-04-01T04:48:47;1.80;;;0.60;;
9524;SDS011;15940;48.734;9.112;2023-04-01T04:51:14;1.90;;;0.60;;
9524;SDS011;15940;48.734;9.112;2023-04-01T04:53:42;1.87;;;0.70;;
9524;SDS011;15940;48.734;9.112;2023-04-01T04:56:11;2.50;;;1.27;;
9524;SDS011;15940;48.734;9.112;2023-04-01T04:58:38;1.20;;;0.77;;
9524;SDS011;15940;48.734;9.112;2023-04-01T05:01:06;2.20;;;0.60;;
9524;SDS011;15940;48.734;9.112;2023-04-01T05:03:35;1.23;;;0.70;;
9524;SDS011;15940;48.734;9.112;2023-04-01T05:06:03;0.87;;;0.60;;
9524;SDS011;15940;48.734;9.112;2023-04-01T05:08:31;1.13;;;0.60;;
9524;SDS011;15940;48.734;9.112;2023-04-01T05:10:59;1.67;;;0.60;;
9524;SDS011;15940;48.734;9.112;2023-04-01T05:13:27;2.87;;;0.90;;
9524;SDS011;15940;48.734;9.112;2023-04-01T05:15:54;1.67;;;0.70;;
9524;SDS011;15940;48.734;9.112;2023-04-01T05:18:21;2.97;;;0.90;;
9524;SDS011;15940;48.734;9.112;2023-04-01T05:20:48;2.93;;;1.07;;
9524;SDS011;15940;48.734;9.112;2023-04-01T05:23:17;1.33;;;0.83;;
9524;SDS011;15940;48.734;9.112;2023-04-01T05:25:46;2.00;;;0.83;;
9524;SDS011;15940;48.734;9.112;2023-04-01T05:28:13;2.27;;;0.90;;
9524;SDS011;15940;48.734;9.112;2023-04-01T05:30:42;1.87;;;0.80;;
9524;SDS011;15940;48.734;9.112;2023-04-01T05:33:11;2.50;;;0.90;;
9524;SDS011;15940;48.734;9.112;2023-04-01T05:35:39;2.97;;;0.90;;
9524;SDS011;15940;48.734;9.112;2023-04-01T05:38:06;4.90;;;0.50;;
9524;SDS011;15940;48.734;9.112;2023-04-01T05:40:33;1.33;;;0.70;;
9524;SDS011;15940;48.734;9.112;2023-04-01T05:43:00;1.23;;;0.70;;
9524;SDS011;15940;48.734;9.112;2023-04-01T05:45:27;1.53;;;0.77;;
9524;SDS011;15940;48.734;9.112;2023-04-01T05:47:55;2.70;;;0.70;;
9524;SDS011;15940;48.734;9.112;2023-04-01T05:50:22;1.00;;;0.50;;
9524;SDS011;15940;48.734;9.112;2023-04-01T05:52:49;2.53;;;0.80;;
9524;SDS011;15940;48.734;9.112;2023-04-01T05:55:16;0.73;;;0.50;;
9524;SDS011;15940;48.734;9.112;2023-04-01T05:57:44;1.43;;;0.67;;
9524;SDS011;15940;48.734;9.112;2023-04-01T06:00:13;1.60;;;0.60;;
9524;SDS011;15940;48.734;9.112;2023-04-01T06:02:41;1.83;;;0.77;;
9524;SDS011;15940;48.734;9.112;2023-04-01T06:05:14;1.10;;;0.70;;
9524;SDS011;15940;48.734;9.112;2023-04-01T06:07:45;1.10;;;0.43;;
9524;SDS011;15940;48.734;9.112;2023-04-01T06:10:13;0.63;;;0.57;;
9524;SDS011;15940;48.734;9.112;2023-04-01T06:12:45;1.57;;;0.60;;
9524;SDS011;15940;48.734;9.112;2023-04-01T06:15:32;2.13;;;0.50;;
9524;SDS011;15940;48.734;9.112;2023-04-01T06:18:28;2.73;;;1.00;;
9524;SDS011;15940;48.734;9.112;2023-04-01T06:21:22;2.67;;;0.70;;
9524;SDS011;15940;48.734;9.112;2023-04-01T06:24:15;2.50;;;0.90;;
9524;SDS011;15940;48.734;9.112;2023-04-01T06:27:01;0.50;;;0.50;;
9524;SDS011;15940;48.734;9.112;2023-04-01T06:29:47;1.60;;;0.90;;
9524;SDS011;15940;48.734;9.112;2023-04-01T06:32:38;2.17;;;1.00;;
9524;SDS011;15940;48.734;9.112;2023-04-01T06:35:30;2.97;;;0.63;;
9524;SDS011;15940;48.734;9.112;2023-04-01T06:44:46;1.30;;;0.60;;
9524;SDS011;15940;48.734;9.112;2023-04-01T06:47:29;1.60;;;0.80;;
9524;SDS011;15940;48.734;9.112;2023-04-01T06:50:11;1.23;;;0.70;;
9524;SDS011;15940;48.734;9.112;2023-04-01T06:52:53;1.60;;;1.00;;
9524;SDS011;15940;48.734;9.112;2023-04-01T06:55:30;1.10;;;0.70;;
9524;SDS011;15940;48.734;9.112;2023-04-01T06:58:05;1.60;;;0.90;;
9524;SDS011;15940;48.734;9.112;2023-04-01T07:00:43;1.30;;;0.60;;
9524;SDS011;15940;48.734;9.112;2023-04-01T07:03:14;1.37;;;0.70;;
9524;SDS011;15940;48.734;9.112;2023-04-01T07:05:47;1.60;;;0.60;;
9524;SDS011;15940;48.734;9.112;2023-04-01T07:08:16;1.23;;;0.50;;
9524;SDS011;15940;48.734;9.112;2023-04-01T07:10:47;1.63;;;0.70;;
9524;SDS011;15940;48.734;9.112;2023-04-01T07:13:22;1.20;;;0.70;;
9524;SDS011;15940;48.734;9.112;2023-04-01T07:15:58;1.40;;;0.70;;
9524;SDS011;15940;48.734;9.112;2023-04-01T07:18:34;1.87;;;0.63;;
9524;SDS011;15940;48.734;9.112;2023-04-01T07:21:09;1.20;;;0.53;;
9524;SDS011;15940;48.734;9.112;2023-04-01T07:23:48;2.90;;;0.83;;
9524;SDS011;15940;48.734;9.112;2023-04-01T07:26:19;1.90;;;0.60;;
9524;SDS011;15940;48.734;9.112;2023-04-01T07:28:49;2.00;;;1.10;;
9524;SDS011;15940;48.734;9.112;2023-04-01T07:31:28;1.63;;;0.90;;
9524;SDS011;15940;48.734;9.112;2023-04-01T07:34:12;1.50;;;0.63;;
9524;SDS011;15940;48.734;9.112;2023-04-01T07:36:51;6.10;;;0.80;;
9524;SDS011;15940;48.734;9.112;2023-04-01T07:39:29;1.77;;;0.60;;
9524;SDS011;15940;48.734;9.112;2023-04-01T07:42:07;1.27;;;0.80;;
9524;SDS011;15940;48.734;9.112;2023-04-01T07:44:50;1.33;;;0.70;;
9524;SDS011;15940;48.734;9.112;2023-04-01T07:47:30;1.33;;;0.83;;
9524;SDS011;15940;48.734;9.112;2023-04-01T07:50:13;1.33;;;0.70;;
9524;SDS011;15940;48.734;9.112;2023-04-01T07:52:49;0.67;;;0.60;;
9524;SDS011;15940;48.734;9.112;2023-04-01T07:55:29;1.10;;;0.73;;
9524;SDS011;15940;48.734;9.112;2023-04-01T07:58:07;1.17;;;0.70;;
9524;SDS011;15940;48.734;9.112;2023-04-01T08:00:46;0.77;;;0.50;;
9524;SDS011;15940;48.734;9.112;2023-04-01T08:03:31;3.37;;;0.80;;
9524;SDS011;15940;48.734;9.112;2023-04-01T08:06:11;1.43;;;0.80;;
9524;SDS011;15940;48.734;9.112;2023-04-01T08:08:47;1.07;;;0.80;;
9524;SDS011;15940;48.734;9.112;2023-04-01T08:11:29;2.23;;;0.90;;
9524;SDS011;15940;48.734;9.112;2023-04-01T08:14:08;2.13;;;0.80;;
9524;SDS011;15940;48.734;9.112;2023-04-01T08:16:46;0.97;;;0.70;;
9524;SDS011;15940;48.734;9.112;2023-04-01T08:19:21;2.27;;;0.80;;
9524;SDS011;15940;48.734;9.112;2023-04-01T08:22:01;1.83;;;0.47;;
9524;SDS011;15940;48.734;9.112;2023-04-01T08:24:36;1.27;;;0.67;;
9524;SDS011;15940;48.734;9.112;2023-04-01T08:27:09;1.70;;;0.73;;
9524;SDS011;15940;48.734;9.112;2023-04-01T08:29:46;0.90;;;0.60;;
9524;SDS011;15940;48.734;9.112;2023-04-01T08:32:20;0.90;;;0.70;;
9524;SDS011;15940;48.734;9.112;2023-04-01T08:34:55;1.13;;;0.50;;
9524;SDS011;15940;48.734;9.112;2023-04-01T08:37:35;0.60;;;0.60;;
9524;SDS011;15940;48.734;9.112;2023-04-01T08:40:12;1.30;;;0.87;;
9524;SDS011;15940;48.734;9.112;2023-04-01T08:43:21;1.97;;;0.70;;
9524;SDS011;15940;48.734;9.112;2023-04-01T08:46:25;1.23;;;0.83;;
9524;SDS011;15940;48.734;9.112;2023-04-01T08:49:42;0.50;;;0.50;;
9524;SDS011;15940;48.734;9.112;2023-04-01T08:52:35;1.40;;;0.80;;
9524;SDS011;15940;48.734;9.112;2023-04-01T09:01:15;2.70;;;0.90;;
9524;SDS011;15940;48.734;9.112;2023-04-01T09:04:00;1.47;;;0.60;;
9524;SDS011;15940;48.734;9.112;2023-04-01T09:06:52;0.73;;;0.60;;
9524;SDS011;15940;48.734;9.112;2023-04-01T09:09:47;1.47;;;0.90;;
9524;SDS011;15940;48.734;9.112;2023-04-01T09:12:52;0.70;;;0.60;;
9524;SDS011;15940;48.734;9.112;2023-04-01T09:15:37;0.93;;;0.67;;
9524;SDS011;15940;48.734;9.112;2023-04-01T09:18:24;1.17;;;1.00;;
9524;SDS011;15940;48.734;9.112;2023-04-01T09:21:09;0.63;;;0.63;;
9524;SDS011;15940;48.734;9.112;2023-04-01T09:27:03;0.60;;;0.60;;
9524;SDS011;15940;48.734;9.112;2023-04-01T09:29:43;0.60;;;0.57;;
9524;SDS011;15940;48.734;9.112;2023-04-01T09:32:51;0.57;;;0.50;;
9524;SDS011;15940;48.734;9.112;2023-04-01T09:36:02;0.50;;;0.50;;
9524;SDS011;15940;48.734;9.112;2023-04-01T09:38:36;0.43;;;0.43;;
9524;SDS011;15940;48.734;9.112;2023-04-01T09:41:19;1.13;;;0.43;;
9524;SDS011;15940;48.734;9.112;2023-04-01T09:44:00;0.37;;;0.33;;
9524;SDS011;15940;48.734;9.112;2023-04-01T09:46:34;0.50;;;0.50;;
9524;SDS011;15940;48.734;9.112;2023-04-01T09:49:38;0.50;;;0.50;;
9524;SDS011;15940;48.734;9.112;2023-04-01T09:52:24;0.30;;;0.30;;
9524;SDS011;15940;48.734;9.112;2023-04-01T09:55:18;0.30;;;0.30;;
9524;SDS011;15940;48.734;9.112;2023-04-01T10:02:04;1.43;;;0.40;;
9524;SDS011;15940;48.734;9.112;2023-04-01T10:08:09;0.53;;;0.43;;
9524;SDS011;15940;48.734;9.112;2023-04-01T10:11:12;0.30;;;0.30;;
9524;SDS011;15940;48.734;9.112;2023-04-01T10:17:26;0.53;;;0.43;;
9524;SDS011;15940;48.734;9.112;2023-04-01T10:20:31;0.70;;;0.30;;
9524;SDS011;15940;48.734;9.112;2023-04-01T10:23:29;0.63;;;0.40;;
9524;SDS011;15940;48.734;9.112;2023-04-01T10:33:17;1.07;;;0.40;;
9524;SDS011;15940;48.734;9.112;2023-04-01T10:36:37;0.27;;;0.27;;
9524;SDS011;15940;48.734;9.112;2023-04-01T10:39:33;0.40;;;0.40;;
9524;SDS011;15940;48.734;9.112;2023-04-01T10:42:32;0.20;;;0.20;;
9524;SDS011;15940;48.734;9.112;2023-04-01T10:59:07;0.30;;;0.30;;
9524;SDS011;15940;48.734;9.112;2023-04-01T11:06:09;0.30;;;0.30;;
9524;SDS011;15940;48.734;9.112;2023-04-01T11:09:26;0.20;;;0.20;;
9524;SDS011;15940;48.734;9.112;2023-04-01T11:15:52;0.10;;;0.10;;
9524;SDS011;15940;48.734;9.112;2023-04-01T11:19:07;0.33;;;0.20;;
9524;SDS011;15940;48.734;9.112;2023-04-01T11:22:47;1.50;;;0.77;;
9524;SDS011;15940;48.734;9.112;2023-04-01T11:25:40;0.67;;;0.50;;
9524;SDS011;15940;48.734;9.112;2023-04-01T11:31:54;0.40;;;0.33;;
9524;SDS011;15940;48.734;9.112;2023-04-01T11:34:41;0.30;;;0.30;;
9524;SDS011;15940;48.734;9.112;2023-04-01T11:37:24;0.40;;;0.40;;
9524;SDS011;15940;48.734;9.112;2023-04-01T11:40:08;0.40;;;0.20;;
9524;SDS011;15940;48.734;9.112;2023-04-01T11:42:49;0.43;;;0.27;;
9524;SDS011;15940;48.734;9.112;2023-04-01T11:45:30;1.40;;;0.70;;
9524;SDS011;15940;48.734;9.112;2023-04-01T11:48:07;0.20;;;0.20;;
9524;SDS011;15940;48.734;9.112;2023-04-01T11:50:53;0.30;;;0.30;;
9524;SDS011;15940;48.734;9.112;2023-04-01T11:53:41;0.30;;;0.30;;
9524;SDS011;15940;48.734;9.112;2023-04-01T11:56:24;0.63;;;0.37;;
9524;SDS011;15940;48.734;9.112;2023-04-01T12:02:15;0.20;;;0.20;;
9524;SDS011;15940;48.734;9.112;2023-04-01T12:05:04;0.27;;;0.27;;
9524;SDS011;15940;48.734;9.112;2023-04-01T12:07:54;0.40;;;0.40;;
9524;SDS011;15940;48.734;9.112;2023-04-01T12:10:36;0.30;;;0.30;;
9524;SDS011;15940;48.734;9.112;2023-04-01T12:13:14;0.20;;;0.20;;
9524;SDS011;15940;48.734;9.112;2023-04-01T12:16:01;0.30;;;0.30;;
9524;SDS011;15940;48.734;9.112;2023-04-01T12:18:50;0.30;;;0.30;;
9524;SDS011;15940;48.734;9.112;2023-04-01T12:21:25;0.40;;;0.40;;
9524;SDS011;15940;48.734;9.112;2023-04-01T12:24:11;0.30;;;0.30;;
9524;SDS011;15940;48.734;9.112;2023-04-01T12:27:05;0.20;;;0.20;;
9524;SDS011;15940;48.734;9.112;2023-04-01T12:30:05;0.20;;;0.20;;
9524;SDS011;15940;48.734;9.112;2023-04-01T12:32:55;0.30;;;0.30;;
9524;SDS011;15940;48.734;9.112;2023-04-01T12:35:44;0.20;;;0.20;;
9524;SDS011;15940;48.734;9.112;2023-04-01T12:38:26;0.33;;;0.30;;
9524;SDS011;15940;48.734;9.112;2023-04-01T12:41:08;0.20;;;0.20;;
9524;SDS011;15940;48.734;9.112;2023-04-01T12:43:49;0.20;;;0.20;;
9524;SDS011;15940;48.734;9.112;2023-04-01T12:50:16;0.30;;;0.30;;
9524;SDS011;15940;48.734;9.112;2023-04-01T12:53:06;0.60;;;0.30;;
9524;SDS011;15940;48.734;9.112;2023-04-01T12:55:52;0.83;;;0.20;;
9524;SDS011;15940;48.734;9.112;2023-04-01T12:58:29;0.20;;;0.20;;
9524;SDS011;15940;48.734;9.112;2023-04-01T13:01:29;0.10;;;0.10;;
9524;SDS011;15940;48.734;9.112;2023-04-01T13:10:24;0.73;;;0.33;;
9524;SDS011;15940;48.734;9.112;2023-04-01T13:13:14;0.93;;;0.30;;
9524;SDS011;15940;48.734;9.112;2023-04-01T13:16:02;0.00;;;0.00;;
9524;SDS011;15940;48.734;9.112;2023-04-01T13:18:39;0.20;;;0.20;;
9524;SDS011;15940;48.734;9.112;2023-04-01T13:21:25;0.50;;;0.50;;
9524;SDS011;15940;48.734;9.112;2023-04-01T13:24:09;0.20;;;0.20;;
9524;SDS011;15940;48.734;9.112;2023-04-01T13:26:52;0.20;;;0.20;;
9524;SDS011;15940;48.734;9.112;2023-04-01T13:29:28;0.50;;;0.50;;
9524;SDS011;15940;48.734;9.112;2023-04-01T13:32:05;0.10;;;0.10;;
9524;SDS011;15940;48.734;9.112;2023-04-01T13:34:48;0.10;;;0.10;;
9524;SDS011;15940;48.734;9.112;2023-04-01T13:37:41;0.30;;;0.30;;
9524;SDS011;15940;48.734;9.112;2023-04-01T13:40:36;0.17;;;0.17;;
9524;SDS011;15940;48.734;9.112;2023-04-01T13:43:15;0.30;;;0.30;;
9524;SDS011;15940;48.734;9.112;2023-04-01T13:45:57;0.30;;;0.30;;
9524;SDS011;15940;48.734;9.112;2023-04-01T13:48:54;0.20;;;0.20;;
9524;SDS011;15940;48.734;9.112;2023-04-01T13:51:57;0.33;;;0.33;;
9524;SDS011;15940;48.734;9.112;2023-04-01T13:55:02;0.07;;;0.07;;
9524;SDS011;15940;48.734;9.112;2023-04-01T13:57:55;0.43;;;0.40;;
9524;SDS011;15940;48.734;9.112;2023-04-01T14:00:42;0.77;;;0.43;;
9524;SDS011;15940;48.734;9.112;2023-04-01T14:03:27;0.37;;;0.37;;
9524;SDS011;15940;48.734;9.112;2023-04-01T14:06:13;0.30;;;0.30;;
9524;SDS011;15940;48.734;9.112;2023-04-01T14:09:07;0.13;;;0.13;;
9524;SDS011;15940;48.734;9.112;2023-04-01T14:11:53;0.20;;;0.20;;
9524;SDS011;15940;48.734;9.112;2023-04-01T14:14:33;0.40;;;0.40;;
9524;SDS011;15940;48.734;9.112;2023-04-01T14:17:23;0.00;;;0.00;;
9524;SDS011;15940;48.734;9.112;2023-04-01T14:20:29;0.30;;;0.30;;
9524;SDS011;15940;48.734;9.112;2023-04-01T14:23:09;0.30;;;0.30;;
9524;SDS011;15940;48.734;9.112;2023-04-01T14:29:12;2.43;;;0.40;;
9524;SDS011;15940;48.734;9.112;2023-04-01T14:32:02;0.77;;;0.77;;
9524;SDS011;15940;48.734;9.112;2023-04-01T14:34:40;0.70;;;0.70;;
9524;SDS011;15940;48.734;9.112;2023-04-01T14:37:23;0.83;;;0.40;;
9524;SDS011;15940;48.734;9.112;2023-04-01T14:40:26;0.30;;;0.30;;
9524;SDS011;15940;48.734;9.112;2023-04-01T14:46:34;0.23;;;0.23;;
9524;SDS011;15940;48.734;9.112;2023-04-01T14:49:35;0.20;;;0.20;;
9524;SDS011;15940;48.734;9.112;2023-04-01T14:52:05;0.27;;;0.27;;
9524;SDS011;15940;48.734;9.112;2023-04-01T14:54:42;0.20;;;0.20;;
9524;SDS011;15940;48.734;9.112;2023-04-01T14:57:13;0.97;;;0.50;;
9524;SDS011;15940;48.734;9.112;2023-04-01T14:59:49;0.37;;;0.37;;
9524;SDS011;15940;48.734;9.112;2023-04-01T15:02:30;0.53;;;0.30;;
9524;SDS011;15940;48.734;9.112;2023-04-01T15:05:15;0.63;;;0.63;;
9524;SDS011;15940;48.734;9.112;2023-04-01T15:07:56;0.37;;;0.37;;
9524;SDS011;15940;48.734;9.112;2023-04-01T15:13:53;2.50;;;0.57;;
9524;SDS011;15940;48.734;9.112;2023-04-01T15:16:36;0.40;;;0.37;;
9524;SDS011;15940;48.734;9.112;2023-04-01T15:19:17;0.30;;;0.30;;
9524;SDS011;15940;48.734;9.112;2023-04-01T15:21:59;0.20;;;0.20;;
9524;SDS011;15940;48.734;9.112;2023-04-01T15:24:46;0.70;;;0.30;;
9524;SDS011;15940;48.734;9.112;2023-04-01T15:27:29;0.70;;;0.60;;
9524;SDS011;15940;48.734;9.112;2023-04-01T15:30:18;0.30;;;0.30;;
9524;SDS011;15940;48.734;9.112;2023-04-01T15:33:03;0.40;;;0.40;;
9524;SDS011;15940;48.734;9.112;2023-04-01T15:35:46;0.30;;;0.30;;
9524;SDS011;15940;48.734;9.112;2023-04-01T15:38:26;1.60;;;0.30;;
9524;SDS011;15940;48.734;9.112;2023-04-01T15:41:03;0.50;;;0.50;;
9524;SDS011;15940;48.734;9.112;2023-04-01T15:43:41;0.67;;;0.33;;
9524;SDS011;15940;48.734;9.112;2023-04-01T15:49:09;0.60;;;0.30;;
9524;SDS011;15940;48.734;9.112;2023-04-01T15:51:51;0.50;;;0.50;;
9524;SDS011;15940;48.734;9.112;2023-04-01T15:57:37;0.30;;;0.30;;
9524;SDS011;15940;48.734;9.112;2023-04-01T16:00:19;1.37;;;0.63;;
9524;SDS011;15940;48.734;9.112;2023-04-01T16:03:02;0.43;;;0.43;;
9524;SDS011;15940;48.734;9.112;2023-04-01T16:05:49;0.27;;;0.27;;
9524;SDS011;15940;48.734;9.112;2023-04-01T16:08:39;0.87;;;0.60;;
9524;SDS011;15940;48.734;9.112;2023-04-01T16:11:28;1.10;;;0.47;;
9524;SDS011;15940;48.734;9.112;2023-04-01T16:14:07;0.50;;;0.50;;
9524;SDS011;15940;48.734;9.112;2023-04-01T16:16:54;1.63;;;0.70;;
9524;SDS011;15940;48.734;9.112;2023-04-01T16:19:37;0.57;;;0.57;;
9524;SDS011;15940;48.734;9.112;2023-04-01T16:22:16;0.97;;;0.73;;
9524;SDS011;15940;48.734;9.112;2023-04-01T16:24:50;0.60;;;0.60;;
9524;SDS011;15940;48.734;9.112;2023-04-01T16:27:25;0.50;;;0.50;;
9524;SDS011;15940;48.734;9.112;2023-04-01T16:30:03;1.47;;;0.70;;
9524;SDS011;15940;48.734;9.112;2023-04-01T16:33:01;0.60;;;0.60;;
9524;SDS011;15940;48.734;9.112;2023-04-01T16:35:35;0.73;;;0.50;;
9524;SDS011;15940;48.734;9.112;2023-04-01T16:38:16;0.80;;;0.80;;
9524;SDS011;15940;48.734;9.112;2023-04-01T16:40:57;0.83;;;0.83;;
9524;SDS011;15940;48.734;9.112;2023-04-01T16:43:38;0.60;;;0.60;;
9524;SDS011;15940;48.734;9.112;2023-04-01T16:46:17;0.70;;;0.70;;
9524;SDS011;15940;48.734;9.112;2023-04-01T16:48:59;0.70;;;0.70;;
9524;SDS011;15940;48.734;9.112;2023-04-01T16:51:35;2.17;;;0.97;;
9524;SDS011;15940;48.734;9.112;2023-04-01T16:54:13;1.30;;;1.10;;
9524;SDS011;15940;48.734;9.112;2023-04-01T16:56:54;0.87;;;0.87;;
9524;SDS011;15940;48.734;9.112;2023-04-01T16:59:29;1.43;;;0.90;;
9524;SDS011;15940;48.734;9.112;2023-04-01T17:02:02;1.00;;;0.73;;
9524;SDS011;15940;48.734;9.112;2023-04-01T17:04:37;1.40;;;0.90;;
9524;SDS011;15940;48.734;9.112;2023-04-01T17:07:20;1.53;;;0.80;;
9524;SDS011;15940;48.734;9.112;2023-04-01T17:10:04;0.90;;;0.60;;
9524;SDS011;15940;48.734;9.112;2023-04-01T17:13:06;0.93;;;0.77;;
9524;SDS011;15940;48.734;9.112;2023-04-01T17:22:39;0.80;;;0.80;;
9524;SDS011;15940;48.734;9.112;2023-04-01T17:28:10;1.17;;;1.00;;
9524;SDS011;15940;48.734;9.112;2023-04-01T17:30:51;1.10;;;1.00;;
9524;SDS011;15940;48.734;9.112;2023-04-01T17:33:41;2.20;;;1.30;;
9524;SDS011;15940;48.734;9.112;2023-04-01T17:36:31;2.43;;;1.30;;
9524;SDS011;15940;48.734;9.112;2023-04-01T17:42:21;1.67;;;1.20;;
9524;SDS011;15940;48.734;9.112;2023-04-01T17:45:04;2.37;;;1.23;;
9524;SDS011;15940;48.734;9.112;2023-04-01T17:47:47;2.00;;;1.40;;
9524;SDS011;15940;48.734;9.112;2023-04-01T17:50:28;2.00;;;1.70;;